createdAt,value
2018-11-06T00:01:50.327Z,2.64
2018-11-06T00:07:45.324Z,2.44
2018-11-06T00:13:40.325Z,3.33
2018-11-06T00:19:35.332Z,5.72
2018-11-06T00:25:30.322Z,6.12
2018-11-06T00:31:25.334Z,6.6
2018-11-06T00:37:20.322Z,6.56
2018-11-06T00:43:15.337Z,6.5
2018-11-06T00:49:10.363Z,6.59
2018-11-06T00:55:05.357Z,6.57
2018-11-06T01:01:00.341Z,6.47
2018-11-06T01:06:55.369Z,5.95
2018-11-06T01:12:50.385Z,6.43
2018-11-06T01:18:45.346Z,6.37
2018-11-06T01:24:40.363Z,6.72
2018-11-06T01:30:35.361Z,6.7
2018-11-06T01:36:30.332Z,6.18
2018-11-06T01:42:25.342Z,8.51
2018-11-06T01:48:20.360Z,7.48
2018-11-06T01:54:15.360Z,7.13
2018-11-06T02:00:10.377Z,6.77
2018-11-06T02:06:05.436Z,7.64
2018-11-06T02:12:00.362Z,6.93
2018-11-06T02:17:55.362Z,6.5
2018-11-06T02:23:50.407Z,5.93
2018-11-06T02:29:45.408Z,5
2018-11-06T02:35:40.401Z,3.32
2018-11-06T02:41:35.381Z,4.34
2018-11-06T02:47:30.378Z,3.76
2018-11-06T02:53:25.385Z,3.61
2018-11-06T02:59:20.361Z,2.9
2018-11-06T03:05:15.418Z,3.07
2018-11-06T03:11:10.393Z,3.87
2018-11-06T03:17:05.520Z,3.78
2018-11-06T03:23:00.399Z,3.91
2018-11-06T03:28:55.373Z,3.89
2018-11-06T03:34:50.391Z,4
2018-11-06T03:40:45.397Z,4.86
2018-11-06T03:46:40.385Z,4.5
2018-11-06T03:52:35.419Z,4.08
2018-11-06T03:58:30.415Z,3.41
2018-11-06T04:04:25.398Z,4.14
2018-11-06T04:10:20.427Z,4.53
2018-11-06T04:16:15.515Z,4.3
2018-11-06T04:22:10.451Z,4.47
2018-11-06T04:28:05.425Z,3.88
2018-11-06T04:34:00.426Z,3.98
2018-11-06T04:39:55.405Z,3.77
2018-11-06T04:45:50.416Z,3.66
2018-11-06T04:51:45.440Z,3.97
2018-11-06T04:57:40.443Z,4.13
2018-11-06T05:03:35.450Z,4.5
2018-11-06T05:09:30.424Z,4.37
2018-11-06T05:15:25.440Z,4.99
2018-11-06T05:21:20.476Z,4.64
2018-11-06T05:27:15.466Z,4.98
2018-11-06T05:33:10.430Z,4.43
2018-11-06T05:39:05.486Z,5.55
2018-11-06T05:45:00.450Z,4.53
2018-11-06T05:50:55.424Z,5.23
2018-11-06T05:56:50.454Z,3.77
2018-11-06T06:02:45.441Z,3.97
2018-11-06T06:08:40.432Z,3.49
2018-11-06T06:14:35.497Z,2.65
2018-11-06T06:20:30.451Z,2.85
2018-11-06T06:26:25.426Z,2.23
2018-11-06T06:32:20.491Z,2.38
2018-11-06T06:38:15.456Z,2.5
2018-11-06T06:44:10.441Z,2.25
2018-11-06T06:50:05.466Z,7.73
2018-11-06T06:56:00.483Z,4.9
2018-11-06T07:01:55.440Z,5.22
2018-11-06T07:07:50.459Z,5.3
2018-11-06T07:13:45.457Z,6.57
2018-11-06T07:19:40.443Z,6.8
2018-11-06T07:25:35.446Z,6.35
2018-11-06T07:31:30.470Z,7.81
2018-11-06T07:37:25.461Z,8.13
2018-11-06T07:43:20.469Z,6.94
2018-11-06T07:49:15.491Z,5.6
2018-11-06T07:55:10.439Z,6.59
2018-11-06T08:01:05.462Z,8.99
2018-11-06T08:07:00.475Z,10.88
2018-11-06T08:12:55.527Z,19.83
2018-11-06T08:18:50.498Z,13.64
2018-11-06T08:24:45.532Z,9.56
2018-11-06T08:30:40.623Z,6.31
2018-11-06T08:36:35.662Z,7.7
2018-11-06T08:42:30.527Z,5.73
2018-11-06T08:48:25.490Z,7.04
2018-11-06T08:54:20.504Z,5.5
2018-11-06T09:00:15.534Z,6.63
2018-11-06T09:06:10.486Z,6.89
2018-11-06T09:12:05.515Z,8.6
2018-11-06T09:18:00.466Z,7.3
2018-11-06T09:23:55.527Z,7
2018-11-06T09:29:50.493Z,5.77
2018-11-06T09:35:45.490Z,5.45
2018-11-06T09:41:40.564Z,5.62
2018-11-06T09:47:35.521Z,5.31
2018-11-06T09:53:30.489Z,5.01
2018-11-06T09:59:25.490Z,5.94
2018-11-06T10:05:20.509Z,4.19
2018-11-06T10:11:15.484Z,5.27
2018-11-06T10:17:10.484Z,4.64
2018-11-06T10:23:05.565Z,6.17
2018-11-06T10:29:00.549Z,2.76
2018-11-06T10:34:55.502Z,4.49
2018-11-06T10:40:50.514Z,4.13
2018-11-06T10:46:45.497Z,3.42
2018-11-06T10:52:40.516Z,7.93
2018-11-06T10:58:35.533Z,3.94
2018-11-06T11:04:30.519Z,3.9
2018-11-06T11:10:25.550Z,2.99
2018-11-06T11:16:20.538Z,1.91
2018-11-06T11:22:15.518Z,2.23
2018-11-06T11:28:10.526Z,1.41
2018-11-06T11:34:05.551Z,2.27
2018-11-06T11:40:00.528Z,1.81
2018-11-06T11:45:55.639Z,2.19
2018-11-06T11:51:50.529Z,2.87
2018-11-06T11:57:45.516Z,3.23
2018-11-06T12:03:40.530Z,4.58
2018-11-06T12:09:35.569Z,4.53
2018-11-06T12:15:30.533Z,28.22
2018-11-06T12:21:25.530Z,3.99
2018-11-06T12:27:20.550Z,2.71
2018-11-06T12:33:15.547Z,3.05
2018-11-06T12:39:10.521Z,2.13
2018-11-06T12:45:05.538Z,2.17
2018-11-06T12:51:00.536Z,1.71
2018-11-06T12:56:55.541Z,3.3
2018-11-06T13:02:50.543Z,10.15
2018-11-06T13:08:45.569Z,4.71
2018-11-06T13:14:40.573Z,2.7
2018-11-06T13:20:35.578Z,3.7
2018-11-06T13:26:30.692Z,6.02
2018-11-06T13:32:25.608Z,1.61
2018-11-06T13:38:20.607Z,2.32
2018-11-06T13:44:15.894Z,2.63
2018-11-06T13:50:10.549Z,2.63
2018-11-06T13:56:05.543Z,2.57
2018-11-06T14:02:00.614Z,3.13
2018-11-06T14:07:55.583Z,3.34
2018-11-06T14:13:50.566Z,3.99
2018-11-06T14:19:45.578Z,3.26
2018-11-06T14:25:40.624Z,3.81
2018-11-06T14:31:35.563Z,4.74
2018-11-06T14:37:30.573Z,5.07
2018-11-06T14:43:25.597Z,4.16
2018-11-06T14:49:20.731Z,3.34
2018-11-06T14:55:15.575Z,4.4
2018-11-06T15:01:10.609Z,4.54
2018-11-06T15:07:05.570Z,4.44
2018-11-06T15:13:00.580Z,5.93
2018-11-06T15:18:55.582Z,9.3
2018-11-06T15:24:50.613Z,6.63
2018-11-06T15:30:45.581Z,6.85
2018-11-06T15:36:40.596Z,8.74
2018-11-06T15:42:35.580Z,21.61
2018-11-06T15:48:30.665Z,4
2018-11-06T15:54:25.662Z,2.94
2018-11-06T16:00:20.614Z,3.09
2018-11-06T16:06:15.607Z,4.45
2018-11-06T16:12:10.604Z,3.37
2018-11-06T16:18:05.601Z,4.5
2018-11-06T16:24:00.680Z,3.76
2018-11-06T16:29:55.628Z,5.13
2018-11-06T16:35:50.618Z,4.68
2018-11-06T16:41:45.676Z,4.01
2018-11-06T16:47:40.641Z,4.64
2018-11-06T16:53:35.619Z,5.31
2018-11-06T16:59:30.688Z,7.55
2018-11-06T17:05:25.607Z,8.11
2018-11-06T17:11:20.621Z,8.99
2018-11-06T17:17:15.618Z,7.63
2018-11-06T17:23:10.656Z,8
2018-11-06T17:29:05.624Z,7.66
2018-11-06T17:35:00.628Z,7.15
2018-11-06T17:40:55.677Z,8.39
2018-11-06T17:46:50.628Z,8.68
2018-11-06T17:52:45.600Z,6.85
2018-11-06T17:58:40.634Z,7.44
2018-11-06T18:04:35.740Z,7.57
2018-11-06T18:10:30.679Z,7.48
2018-11-06T18:16:25.679Z,8.15
2018-11-06T18:22:20.649Z,7.49
2018-11-06T18:28:15.659Z,7.77
2018-11-06T18:34:10.647Z,8.07
2018-11-06T18:40:05.706Z,9.79
2018-11-06T18:46:00.653Z,9.86
2018-11-06T18:51:55.624Z,9.23
2018-11-06T18:57:50.725Z,7.63
2018-11-06T19:03:45.663Z,7.9
2018-11-06T19:09:40.666Z,7.55
2018-11-06T19:15:35.654Z,7.5
2018-11-06T19:21:30.651Z,7.49
2018-11-06T19:27:25.747Z,7.18
2018-11-06T19:33:20.650Z,7.71
2018-11-06T19:39:15.673Z,6.89
2018-11-06T19:45:10.668Z,6.74
2018-11-06T19:51:05.668Z,6.88
2018-11-06T19:57:00.651Z,5.94
2018-11-06T20:02:55.717Z,5.6
2018-11-06T20:08:50.709Z,4.62
2018-11-06T20:14:45.675Z,5.04
2018-11-06T20:20:40.659Z,5.46
2018-11-06T20:26:35.666Z,6.13
2018-11-06T20:32:30.711Z,6.43
2018-11-06T20:38:25.668Z,11.57
2018-11-06T20:44:20.685Z,11.02
2018-11-06T20:50:15.701Z,9.86
2018-11-06T20:56:10.812Z,8.87
2018-11-06T21:02:05.677Z,8.74
2018-11-06T21:08:00.731Z,9.93
2018-11-06T21:13:55.723Z,10.75
2018-11-06T21:19:50.787Z,9.5
2018-11-06T21:25:45.910Z,11.43
2018-11-06T21:31:40.729Z,11.58
2018-11-06T21:37:35.737Z,11.65
2018-11-06T21:43:30.708Z,10.42
2018-11-06T21:49:25.688Z,10.08
2018-11-06T21:55:20.700Z,11.5
2018-11-06T22:01:15.684Z,11.83
2018-11-06T22:07:10.716Z,13.19
2018-11-06T22:13:05.860Z,11.92
2018-11-06T22:19:00.705Z,11.43
2018-11-06T22:24:55.711Z,11.52
2018-11-06T22:30:50.704Z,10.67
2018-11-06T22:36:45.772Z,10.97
2018-11-06T22:42:40.728Z,12.77
2018-11-06T22:48:35.724Z,12.26
2018-11-06T22:54:30.706Z,11.83
2018-11-06T23:00:25.712Z,11.3
2018-11-06T23:06:20.951Z,10.97
2018-11-06T23:12:15.706Z,10.12
2018-11-06T23:18:10.722Z,9.25
2018-11-06T23:24:05.772Z,9.23
2018-11-06T23:30:00.707Z,8.78
2018-11-06T23:35:55.705Z,11.12
2018-11-06T23:41:50.711Z,10.83
2018-11-06T23:47:45.708Z,11.49
2018-11-06T23:53:40.768Z,14.46
2018-11-06T23:59:35.718Z,13
